createdAt,value
2022-08-07T00:02:36.201Z,21.06
2022-08-07T00:04:44.367Z,21.09
2022-08-07T00:07:50.542Z,21.12
2022-08-07T00:10:27.171Z,21.21
2022-08-07T00:12:59.816Z,21.19
2022-08-07T00:15:25.737Z,21.21
2022-08-07T00:17:59.224Z,21.19
2022-08-07T00:20:29.847Z,21.16
2022-08-07T00:22:57.305Z,21.22
2022-08-07T00:25:23.545Z,21.22
2022-08-07T00:27:52.669Z,21.25
2022-08-07T00:30:26.366Z,21.30
2022-08-07T00:32:51.421Z,21.39
2022-08-07T00:35:14.313Z,21.33
2022-08-07T00:37:47.771Z,21.29
2022-08-07T00:40:14.081Z,21.29
2022-08-07T00:42:36.989Z,21.28
2022-08-07T00:45:02.304Z,21.29
2022-08-07T00:48:09.031Z,21.32
2022-08-07T00:50:19.652Z,21.23
2022-08-07T00:52:55.437Z,21.16
2022-08-07T00:55:25.572Z,21.12
2022-08-07T00:58:00.879Z,21.12
2022-08-07T01:00:23.912Z,21.08
2022-08-07T01:02:47.022Z,20.95
2022-08-07T01:05:19.236Z,20.87
2022-08-07T01:07:43.022Z,20.90
2022-08-07T01:10:11.196Z,20.92
2022-08-07T01:12:37.196Z,20.95
2022-08-07T01:15:03.944Z,20.95
2022-08-07T01:17:27.613Z,20.92
2022-08-07T01:19:56.106Z,20.87
2022-08-07T01:22:22.827Z,20.83
2022-08-07T01:24:52.931Z,20.90
2022-08-07T01:27:19.506Z,20.83
2022-08-07T01:29:43.788Z,20.85
2022-08-07T01:32:12.553Z,20.87
2022-08-07T01:34:38.685Z,20.87
2022-08-07T01:37:09.815Z,20.77
2022-08-07T01:39:39.595Z,20.87
2022-08-07T01:42:39.015Z,20.84
2022-08-07T01:44:52.611Z,20.78
2022-08-07T01:48:19.101Z,20.85
2022-08-07T01:49:59.342Z,20.85
2022-08-07T01:52:26.592Z,20.87
2022-08-07T01:54:54.314Z,20.88
2022-08-07T01:57:24.915Z,20.92
2022-08-07T01:59:56.061Z,21.02
2022-08-07T02:03:11.440Z,21.11
2022-08-07T02:05:15.871Z,21.12
2022-08-07T02:07:58.645Z,21.16
2022-08-07T02:10:31.505Z,21.19
2022-08-07T02:12:59.993Z,21.12
2022-08-07T02:15:31.546Z,21.06
2022-08-07T02:17:59.934Z,21.12
2022-08-07T02:20:24.599Z,21.13
2022-08-07T02:22:57.576Z,21.13
2022-08-07T02:26:10.388Z,21.15
2022-08-07T02:28:09.209Z,21.12
2022-08-07T02:30:36.706Z,21.12
2022-08-07T02:33:07.300Z,21.09
2022-08-07T02:36:29.723Z,21.06
2022-08-07T02:38:22.719Z,21.02
2022-08-07T02:40:55.966Z,21.05
2022-08-07T02:43:19.835Z,21.09
2022-08-07T02:45:58.127Z,21.12
2022-08-07T02:48:25.924Z,21.12
2022-08-07T02:50:55.275Z,21.02
2022-08-07T02:53:27.200Z,20.99
2022-08-07T02:56:03.389Z,21.05
2022-08-07T02:58:33.412Z,21.05
2022-08-07T03:00:58.916Z,21.09
2022-08-07T03:03:23.889Z,21.08
2022-08-07T03:05:53.890Z,20.96
2022-08-07T03:08:18.034Z,20.96
2022-08-07T03:10:50.308Z,21.12
2022-08-07T03:13:19.654Z,21.11
2022-08-07T03:15:47.707Z,21.05
2022-08-07T03:18:20.123Z,21.12
2022-08-07T03:20:44.871Z,21.12
2022-08-07T03:23:19.025Z,21.11
2022-08-07T03:25:44.659Z,21.12
2022-08-07T03:28:38.402Z,21.05
2022-08-07T03:31:18.649Z,21.02
2022-08-07T03:33:46.211Z,20.87
2022-08-07T03:36:16.464Z,20.73
2022-08-07T03:38:41.949Z,20.61
2022-08-07T03:41:09.016Z,20.50
2022-08-07T03:43:33.916Z,20.50
2022-08-07T03:45:59.700Z,20.44
2022-08-07T03:48:22.811Z,20.30
2022-08-07T03:50:56.054Z,20.23
2022-08-07T03:54:01.817Z,20.22
2022-08-07T03:56:16.285Z,20.22
2022-08-07T03:59:08.678Z,20.30
2022-08-07T04:01:23.995Z,20.34
2022-08-07T04:03:53.330Z,20.37
2022-08-07T04:06:38.044Z,20.43
2022-08-07T04:09:15.199Z,20.48
2022-08-07T04:12:21.468Z,20.58
2022-08-07T04:14:38.531Z,20.57
2022-08-07T04:17:20.418Z,20.65
2022-08-07T04:19:54.907Z,20.60
2022-08-07T04:22:29.479Z,20.63
2022-08-07T04:24:55.920Z,20.74
2022-08-07T04:27:25.862Z,20.65
2022-08-07T04:30:02.381Z,20.41
2022-08-07T04:32:58.073Z,20.04
2022-08-07T04:35:24.025Z,19.86
2022-08-07T04:38:03.552Z,19.71
2022-08-07T04:40:31.315Z,19.57
2022-08-07T04:42:55.149Z,19.46
2022-08-07T04:45:52.155Z,19.40
2022-08-07T04:48:23.909Z,19.31
2022-08-07T04:50:58.459Z,19.33
2022-08-07T04:54:01.898Z,19.20
2022-08-07T04:58:09.386Z,19.20
2022-08-07T05:00:11.430Z,19.30
2022-08-07T05:02:40.066Z,19.38
2022-08-07T05:05:52.124Z,19.31
2022-08-07T05:08:08.430Z,19.26
2022-08-07T05:10:39.299Z,19.24
2022-08-07T05:14:53.107Z,19.31
2022-08-07T05:16:04.771Z,19.24
2022-08-07T05:18:30.983Z,19.27
2022-08-07T05:21:02.087Z,19.33
2022-08-07T05:23:36.356Z,19.40
2022-08-07T05:26:15.432Z,19.47
2022-08-07T05:28:48.431Z,19.53
2022-08-07T05:31:17.825Z,19.54
2022-08-07T05:33:51.399Z,19.64
2022-08-07T05:36:30.609Z,19.71
2022-08-07T05:39:16.000Z,19.68
2022-08-07T05:42:01.803Z,19.78
2022-08-07T05:44:29.697Z,19.77
2022-08-07T05:46:55.443Z,19.89
2022-08-07T05:49:22.127Z,19.90
2022-08-07T05:51:47.270Z,19.99
2022-08-07T05:54:31.211Z,20.08
2022-08-07T05:57:01.183Z,20.13
2022-08-07T05:59:30.063Z,20.23
2022-08-07T06:02:20.109Z,20.37
2022-08-07T06:04:57.114Z,20.47
2022-08-07T06:07:22.909Z,20.57
2022-08-07T06:10:04.053Z,20.70
2022-08-07T06:12:33.007Z,20.75
2022-08-07T06:15:05.847Z,20.91
2022-08-07T06:17:37.766Z,21.11
2022-08-07T06:20:04.131Z,21.23
2022-08-07T06:22:34.333Z,21.22
2022-08-07T06:25:13.855Z,21.36
2022-08-07T06:27:59.579Z,21.40
2022-08-07T06:30:31.754Z,21.50
2022-08-07T06:33:10.041Z,21.59
2022-08-07T06:35:48.127Z,21.63
2022-08-07T06:38:22.851Z,21.74
2022-08-07T06:40:54.667Z,21.88
2022-08-07T06:43:22.445Z,21.97
2022-08-07T06:46:00.759Z,22.16
2022-08-07T06:48:24.951Z,22.14
2022-08-07T06:50:49.924Z,22.11
2022-08-07T06:54:11.860Z,22.15
2022-08-07T06:56:04.223Z,22.11
2022-08-07T06:58:35.585Z,22.15
2022-08-07T07:01:07.476Z,22.21
2022-08-07T07:03:48.890Z,22.19
2022-08-07T07:06:13.584Z,22.25
2022-08-07T07:08:47.097Z,22.16
2022-08-07T07:11:14.051Z,22.21
2022-08-07T07:13:58.140Z,22.08
2022-08-07T07:16:30.092Z,22.00
2022-08-07T07:19:11.302Z,22.04
2022-08-07T07:22:04.920Z,21.81
2022-08-07T07:24:29.116Z,22.01
2022-08-07T07:26:57.346Z,22.01
2022-08-07T07:29:57.124Z,22.07
2022-08-07T07:32:14.015Z,22.11
2022-08-07T07:34:41.012Z,22.11
2022-08-07T07:37:21.781Z,22.19
2022-08-07T07:39:54.532Z,22.34
2022-08-07T07:42:19.798Z,22.41
2022-08-07T07:44:49.661Z,22.69
2022-08-07T07:47:22.835Z,22.77
2022-08-07T07:50:34.008Z,22.74
2022-08-07T07:52:33.314Z,22.91
2022-08-07T07:54:56.571Z,23.07
2022-08-07T07:57:43.963Z,23.21
2022-08-07T08:00:07.559Z,23.42
2022-08-07T08:02:36.098Z,23.55
2022-08-07T08:05:00.759Z,23.66
2022-08-07T08:07:35.837Z,23.82
2022-08-07T08:10:07.524Z,23.97
2022-08-07T08:12:52.096Z,23.93
2022-08-07T08:15:15.704Z,23.99
2022-08-07T08:17:58.169Z,24.16
2022-08-07T08:20:23.068Z,24.18
2022-08-07T08:23:10.128Z,24.16
2022-08-07T08:25:54.691Z,24.12
2022-08-07T08:28:38.091Z,24.23
2022-08-07T08:31:04.077Z,24.30
2022-08-07T08:33:33.107Z,24.30
2022-08-07T08:36:18.547Z,24.48
2022-08-07T08:38:50.455Z,24.61
2022-08-07T08:41:57.362Z,24.69
2022-08-07T08:44:44.299Z,24.78
2022-08-07T08:47:26.326Z,24.69
2022-08-07T08:50:04.567Z,24.64
2022-08-07T08:52:36.030Z,24.57
2022-08-07T08:55:10.093Z,24.72
2022-08-07T08:58:13.035Z,24.90
2022-08-07T09:00:48.667Z,24.99
2022-08-07T09:03:49.529Z,24.96
2022-08-07T09:06:29.495Z,25.13
2022-08-07T09:09:20.757Z,25.10
2022-08-07T09:12:31.181Z,25.26
2022-08-07T09:16:25.228Z,25.30
2022-08-07T09:18:22.484Z,25.03
2022-08-07T09:21:05.005Z,25.05
2022-08-07T09:24:33.076Z,25.22
2022-08-07T09:26:40.777Z,25.46
2022-08-07T09:30:05.534Z,25.50
2022-08-07T09:32:57.417Z,25.34
2022-08-07T09:36:04.588Z,25.67
2022-08-07T09:38:57.930Z,26.18
2022-08-07T09:41:21.218Z,26.35
2022-08-07T09:44:05.605Z,26.47
2022-08-07T09:47:51.425Z,26.16
2022-08-07T09:50:01.602Z,26.51
2022-08-07T09:52:52.509Z,26.16
2022-08-07T09:55:36.897Z,26.11
2022-08-07T09:58:35.996Z,26.03
2022-08-07T10:01:51.524Z,26.12
2022-08-07T10:04:52.866Z,26.86
2022-08-07T10:07:31.672Z,27.01
2022-08-07T10:10:11.945Z,27.66
2022-08-07T10:13:15.928Z,27.94
2022-08-07T10:16:10.543Z,28.38
2022-08-07T10:18:42.386Z,28.69
2022-08-07T10:22:02.777Z,28.69
2022-08-07T10:24:55.809Z,28.29
2022-08-07T10:27:46.646Z,27.81
2022-08-07T10:30:13.257Z,28.10
2022-08-07T10:32:52.440Z,28.29
2022-08-07T10:35:56.259Z,28.72
2022-08-07T10:38:48.490Z,29.23
2022-08-07T10:41:51.470Z,29.57
2022-08-07T10:44:28.660Z,29.85
2022-08-07T10:47:51.346Z,29.79
2022-08-07T10:50:36.773Z,29.34
2022-08-07T10:53:21.375Z,29.24
2022-08-07T10:55:53.449Z,28.52
2022-08-07T10:58:47.649Z,27.57
2022-08-07T11:01:35.675Z,27.01
2022-08-07T11:04:37.605Z,27.01
2022-08-07T11:07:24.520Z,27.24
2022-08-07T11:10:09.469Z,27.62
2022-08-07T11:13:01.598Z,27.53
2022-08-07T11:15:31.748Z,27.49
2022-08-07T11:18:15.863Z,27.18
2022-08-07T11:20:58.906Z,27.31
2022-08-07T11:23:36.579Z,27.56
2022-08-07T11:26:21.992Z,27.79
2022-08-07T11:29:01.763Z,28.05
2022-08-07T11:31:46.688Z,28.49
2022-08-07T11:34:19.274Z,28.76
2022-08-07T11:36:58.258Z,28.79
2022-08-07T11:39:39.814Z,29.06
2022-08-07T11:42:30.359Z,29.03
2022-08-07T11:45:09.299Z,28.77
2022-08-07T11:48:18.266Z,29.07
2022-08-07T11:51:35.052Z,29.18
2022-08-07T11:54:38.677Z,28.83
2022-08-07T11:57:59.478Z,28.07
2022-08-07T12:00:19.715Z,28.52
2022-08-07T12:03:41.587Z,28.49
2022-08-07T12:06:51.817Z,28.52
2022-08-07T12:09:49.775Z,28.62
2022-08-07T12:12:14.655Z,28.72
2022-08-07T12:14:53.882Z,28.37
2022-08-07T12:17:22.046Z,28.35
2022-08-07T12:20:14.046Z,28.45
2022-08-07T12:23:09.647Z,28.53
2022-08-07T12:26:23.471Z,28.55
2022-08-07T12:29:11.298Z,28.66
2022-08-07T12:31:37.660Z,28.99
2022-08-07T12:34:17.952Z,28.96
2022-08-07T12:36:43.281Z,28.86
2022-08-07T12:39:43.305Z,28.89
2022-08-07T12:41:59.031Z,29.14
2022-08-07T12:44:26.489Z,29.06
2022-08-07T12:47:14.136Z,28.94
2022-08-07T12:49:56.679Z,28.94
2022-08-07T12:52:34.079Z,29.08
2022-08-07T12:55:05.557Z,29.14
2022-08-07T12:57:39.053Z,29.11
2022-08-07T13:00:31.291Z,29.24
2022-08-07T13:03:27.094Z,28.99
2022-08-07T13:06:54.302Z,29.18
2022-08-07T13:10:19.441Z,29.28
2022-08-07T13:12:31.739Z,29.21
2022-08-07T13:15:14.195Z,29.34
2022-08-07T13:17:59.348Z,29.30
2022-08-07T13:20:39.749Z,29.28
2022-08-07T13:24:01.057Z,29.52
2022-08-07T13:26:07.445Z,29.54
2022-08-07T13:28:45.795Z,29.69
2022-08-07T13:31:17.499Z,29.45
2022-08-07T13:34:32.179Z,29.50
2022-08-07T13:36:59.417Z,29.92
2022-08-07T13:40:35.033Z,30.07
2022-08-07T13:42:42.771Z,30.05
2022-08-07T13:46:06.835Z,30.33
2022-08-07T13:48:04.292Z,30.24
2022-08-07T13:50:32.542Z,30.14
2022-08-07T13:52:59.993Z,29.96
2022-08-07T13:55:26.391Z,29.88
2022-08-07T13:58:31.732Z,29.73
2022-08-07T14:00:55.931Z,29.92
2022-08-07T14:03:30.062Z,29.59
2022-08-07T14:06:03.946Z,29.92
2022-08-07T14:08:29.568Z,29.83
2022-08-07T14:11:02.001Z,29.93
2022-08-07T14:13:38.348Z,29.98
2022-08-07T14:16:16.202Z,29.82
2022-08-07T14:18:50.010Z,29.76
2022-08-07T14:22:03.489Z,30.03
2022-08-07T14:24:34.055Z,29.96
2022-08-07T14:27:02.589Z,29.98
2022-08-07T14:30:07.714Z,29.71
2022-08-07T14:32:42.983Z,29.71
2022-08-07T14:35:06.535Z,29.90
2022-08-07T14:37:38.681Z,29.89
2022-08-07T14:40:17.848Z,29.88
2022-08-07T14:43:55.712Z,29.62
2022-08-07T14:45:49.921Z,29.54
2022-08-07T14:51:01.952Z,29.73
2022-08-07T14:54:06.557Z,29.59
2022-08-07T14:56:29.809Z,29.51
2022-08-07T14:58:56.538Z,29.41
2022-08-07T15:01:23.846Z,29.35
2022-08-07T15:06:38.129Z,29.30
2022-08-07T15:09:57.418Z,29.44
2022-08-07T15:12:04.921Z,29.61
2022-08-07T15:14:32.567Z,29.82
2022-08-07T15:17:01.213Z,29.99
2022-08-07T15:20:31.052Z,29.88
2022-08-07T15:22:23.067Z,29.73
2022-08-07T15:30:26.184Z,29.86
2022-08-07T15:36:01.927Z,29.72
2022-08-07T15:38:33.169Z,29.88
2022-08-07T15:41:24.051Z,29.76
2022-08-07T15:44:04.833Z,29.89
2022-08-07T15:46:37.623Z,29.57
2022-08-07T15:49:12.554Z,29.58
2022-08-07T15:54:21.429Z,29.85
2022-08-07T15:56:48.242Z,29.79
2022-08-07T15:59:16.331Z,29.83
2022-08-07T16:02:02.318Z,29.75
2022-08-07T16:04:32.324Z,29.62
2022-08-07T16:06:57.312Z,29.45
2022-08-07T16:09:41.091Z,29.57
2022-08-07T16:12:28.787Z,29.50
2022-08-07T16:15:07.246Z,29.58
2022-08-07T16:18:12.301Z,29.45
2022-08-07T16:21:56.757Z,29.44
2022-08-07T16:24:01.739Z,29.37
2022-08-07T16:26:30.607Z,29.34
2022-08-07T16:30:10.103Z,29.37
2022-08-07T16:32:34.638Z,29.10
2022-08-07T16:35:50.331Z,28.97
2022-08-07T16:38:38.998Z,29.00
2022-08-07T16:41:41.424Z,29.10
2022-08-07T16:44:53.650Z,28.99
2022-08-07T16:47:56.736Z,29.00
2022-08-07T16:50:37.189Z,29.10
2022-08-07T16:54:02.168Z,29.17
2022-08-07T16:56:32.216Z,28.97
2022-08-07T16:59:14.366Z,28.79
2022-08-07T17:01:56.657Z,28.69
2022-08-07T17:04:36.821Z,28.67
2022-08-07T17:07:16.846Z,28.80
2022-08-07T17:10:06.253Z,28.87
2022-08-07T17:12:56.302Z,28.67
2022-08-07T17:15:44.520Z,28.48
2022-08-07T17:18:23.833Z,28.39
2022-08-07T17:20:49.701Z,28.39
2022-08-07T17:23:32.429Z,28.41
2022-08-07T17:26:23.583Z,28.41
2022-08-07T17:29:06.320Z,28.56
2022-08-07T17:31:44.172Z,28.58
2022-08-07T17:34:34.331Z,28.60
2022-08-07T17:37:14.417Z,28.62
2022-08-07T17:40:08.223Z,28.66
2022-08-07T17:42:59.194Z,28.67
2022-08-07T17:45:31.587Z,28.65
2022-08-07T17:48:11.143Z,28.59
2022-08-07T17:50:47.125Z,28.48
2022-08-07T17:53:58.261Z,28.39
2022-08-07T17:56:28.620Z,28.24
2022-08-07T17:58:56.815Z,28.19
2022-08-07T18:01:36.282Z,28.15
2022-08-07T18:04:16.236Z,28.10
2022-08-07T18:06:47.435Z,28.11
2022-08-07T18:09:48.435Z,28.15
2022-08-07T18:12:40.601Z,28.22
2022-08-07T18:15:11.450Z,28.28
2022-08-07T18:18:46.422Z,28.29
2022-08-07T18:21:10.229Z,28.24
2022-08-07T18:23:42.163Z,28.21
2022-08-07T18:26:01.545Z,28.19
2022-08-07T18:28:59.512Z,28.14
2022-08-07T18:31:52.472Z,28.02
2022-08-07T18:34:40.777Z,28.00
2022-08-07T18:37:09.438Z,27.97
2022-08-07T18:40:17.942Z,27.91
2022-08-07T18:42:47.763Z,27.79
2022-08-07T18:45:40.143Z,27.60
2022-08-07T18:50:04.656Z,27.52
2022-08-07T18:52:33.596Z,27.33
2022-08-07T18:54:30.843Z,27.22
2022-08-07T18:57:30.929Z,27.15
2022-08-07T19:00:04.348Z,27.04
2022-08-07T19:02:51.458Z,26.94
2022-08-07T19:06:03.150Z,26.86
2022-08-07T19:08:22.337Z,26.74
2022-08-07T19:11:35.561Z,26.56
2022-08-07T19:14:17.278Z,26.40
2022-08-07T19:17:07.747Z,26.40
2022-08-07T19:19:55.954Z,26.32
2022-08-07T19:22:30.339Z,26.25
2022-08-07T19:24:54.586Z,26.19
2022-08-07T19:28:57.867Z,26.12
2022-08-07T19:31:03.257Z,25.91
2022-08-07T19:32:59.871Z,25.96
2022-08-07T19:35:26.740Z,25.91
2022-08-07T19:37:58.013Z,25.88
2022-08-07T19:40:31.325Z,25.89
2022-08-07T19:42:56.893Z,25.82
2022-08-07T19:46:05.942Z,25.84
2022-08-07T19:48:18.851Z,25.77
2022-08-07T19:50:52.470Z,25.70
2022-08-07T19:54:32.522Z,25.64
2022-08-07T19:56:00.838Z,25.51
2022-08-07T19:58:27.925Z,25.51
2022-08-07T20:00:54.074Z,25.34
2022-08-07T20:03:34.767Z,25.26
2022-08-07T20:06:02.476Z,25.17
2022-08-07T20:08:34.045Z,25.13
2022-08-07T20:11:03.898Z,25.10
2022-08-07T20:13:54.093Z,25.02
2022-08-07T20:16:35.754Z,25.02
2022-08-07T20:19:00.324Z,24.99
2022-08-07T20:21:25.091Z,24.99
2022-08-07T20:24:03.628Z,24.83
2022-08-07T20:26:44.966Z,24.71
2022-08-07T20:29:46.833Z,24.67
2022-08-07T20:31:55.317Z,24.79
2022-08-07T20:34:48.750Z,24.73
2022-08-07T20:37:08.074Z,24.52
2022-08-07T20:40:02.616Z,24.52
2022-08-07T20:42:20.574Z,24.52
2022-08-07T20:44:49.365Z,24.55
2022-08-07T20:47:14.330Z,24.64
2022-08-07T20:50:00.114Z,24.61
2022-08-07T20:52:50.774Z,24.50
2022-08-07T20:55:07.873Z,24.50
2022-08-07T20:58:02.501Z,24.50
2022-08-07T21:00:42.727Z,24.42
2022-08-07T21:03:07.542Z,24.50
2022-08-07T21:05:51.281Z,24.38
2022-08-07T21:08:36.458Z,24.25
2022-08-07T21:11:01.692Z,24.16
2022-08-07T21:13:57.100Z,24.18
2022-08-07T21:16:13.740Z,24.02
2022-08-07T21:18:40.545Z,23.93
2022-08-07T21:21:05.168Z,23.90
2022-08-07T21:24:11.825Z,23.83
2022-08-07T21:26:42.936Z,23.85
2022-08-07T21:29:22.352Z,23.76
2022-08-07T21:32:47.840Z,23.73
2022-08-07T21:34:58.179Z,23.61
2022-08-07T21:37:58.210Z,23.59
2022-08-07T21:40:45.803Z,23.65
2022-08-07T21:43:13.941Z,23.58
2022-08-07T21:46:07.767Z,23.61
2022-08-07T21:49:14.864Z,23.49
2022-08-07T21:51:55.708Z,23.56
2022-08-07T21:54:46.227Z,23.39
2022-08-07T21:57:39.364Z,23.32
2022-08-07T22:00:20.504Z,23.31
2022-08-07T22:03:05.752Z,23.32
2022-08-07T22:05:45.389Z,23.31
2022-08-07T22:08:10.856Z,23.27
2022-08-07T22:10:35.493Z,23.25
2022-08-07T22:13:05.782Z,23.12
2022-08-07T22:16:43.509Z,23.11
2022-08-07T22:18:37.383Z,23.11
2022-08-07T22:21:22.028Z,23.06
2022-08-07T22:23:53.203Z,23.12
2022-08-07T22:26:28.374Z,22.99
2022-08-07T22:29:03.938Z,22.97
2022-08-07T22:31:59.745Z,22.89
2022-08-07T22:34:53.380Z,22.90
2022-08-07T22:38:02.748Z,22.89
2022-08-07T22:40:45.140Z,22.86
2022-08-07T22:43:14.450Z,22.87
2022-08-07T22:47:02.060Z,22.73
2022-08-07T22:49:27.366Z,22.70
2022-08-07T22:52:10.118Z,22.74
2022-08-07T22:55:17.250Z,22.73
2022-08-07T22:58:04.702Z,22.62
2022-08-07T23:01:06.218Z,22.56
2022-08-07T23:03:57.929Z,22.57
2022-08-07T23:06:40.829Z,22.60
2022-08-07T23:10:04.865Z,22.60
2022-08-07T23:12:37.407Z,22.62
2022-08-07T23:15:00.443Z,22.59
2022-08-07T23:17:37.813Z,22.60
2022-08-07T23:20:50.988Z,22.63
2022-08-07T23:24:05.741Z,22.64
2022-08-07T23:26:38.072Z,22.67
2022-08-07T23:29:43.281Z,22.55
2022-08-07T23:34:20.340Z,22.49
2022-08-07T23:35:44.895Z,22.39
2022-08-07T23:38:36.537Z,22.38
2022-08-07T23:42:01.771Z,22.38
2022-08-07T23:44:29.980Z,22.34
2022-08-07T23:47:16.197Z,22.24
2022-08-07T23:50:00.903Z,22.12
2022-08-07T23:53:05.780Z,22.08
2022-08-07T23:55:53.669Z,22.09
2022-08-07T23:58:38.353Z,22.01
